Time;durP1;ratioP1;P1;durP2;ratioP2;P2;SDS_P1;SDS_P2;PMS_P1;PMS_P2;Temp;Humidity;BMP_temperature;BMP_pressure;BME280_temperature;BME280_humidity;BME280_pressure;Samples;Min_cycle;Max_cycle;Signal;HPM_P1;HPM_P2
2022/02/01 00:00:56;;;;;;;13.88;7.90;;;;;;;;;;4998676;28;20523;-77
2022/02/01 00:03:22;;;;;;;14.57;8.13;;;;;;;;;;5001296;28;20037;-77
2022/02/01 00:06:10;;;;;;;12.50;8.57;;;;;;;;;;5014629;28;20038;-77
2022/02/01 00:08:49;;;;;;;11.55;7.25;;;;;;;;;;5004125;28;20025;-77
2022/02/01 00:16:52;;;;;;;10.52;6.80;;;;;;;;;;4994883;28;20037;-77
2022/02/01 00:38:15;;;;;;;11.55;6.30;;;;;;;;;;5015569;28;20037;-77
2022/02/01 00:40:41;;;;;;;10.82;6.35;;;;;;;;;;5001906;28;20032;-77
2022/02/01 00:43:07;;;;;;;9.95;5.68;;;;;;;;;;5013502;28;20053;-77
2022/02/01 00:45:33;;;;;;;10.38;5.82;;;;;;;;;;4997908;28;20160;-77
2022/02/01 00:47:58;;;;;;;11.95;6.63;;;;;;;;;;5013832;28;20099;-76
2022/02/01 00:50:24;;;;;;;12.80;5.93;;;;;;;;;;4997561;28;20045;-76
2022/02/01 00:52:49;;;;;;;9.48;5.57;;;;;;;;;;4981370;28;20487;-77
2022/02/01 00:55:15;;;;;;;9.23;4.97;;;;;;;;;;4997447;28;20443;-76
2022/02/01 00:57:40;;;;;;;8.57;5.13;;;;;;;;;;4966317;28;20041;-76
2022/02/01 01:00:10;;;;;;;8.93;5.15;;;;;;;;;;4994033;28;20044;-76
2022/02/01 01:02:35;;;;;;;11.70;5.13;;;;;;;;;;5011707;28;20066;-76
2022/02/01 01:05:01;;;;;;;10.25;4.57;;;;;;;;;;5013842;28;20033;-76
2022/02/01 01:07:26;;;;;;;11.05;5.47;;;;;;;;;;5014117;28;20167;-76
2022/02/01 01:09:53;;;;;;;10.15;4.97;;;;;;;;;;5013643;28;20038;-76
2022/02/01 01:12:18;;;;;;;10.60;5.28;;;;;;;;;;4998941;28;20054;-76
2022/02/01 01:44:44;;;;;;;9.10;4.90;;;;;;;;;;4986063;28;20042;-76
2022/02/01 01:55:29;;;;;;;9.93;3.72;;;;;;;;;;5019278;28;20109;-76
2022/02/01 01:57:55;;;;;;;7.22;3.63;;;;;;;;;;4999439;28;20416;-76
2022/02/01 02:03:04;;;;;;;8.02;3.80;;;;;;;;;;5001741;28;20030;-76
2022/02/01 02:05:29;;;;;;;9.93;4.10;;;;;;;;;;4997237;28;20561;-76
2022/02/01 02:07:55;;;;;;;7.03;3.67;;;;;;;;;;5001357;28;20046;-76
2022/02/01 02:10:27;;;;;;;7.97;4.30;;;;;;;;;;5013099;28;20042;-76
2022/02/01 02:14:15;;;;;;;8.20;3.30;;;;;;;;;;5017363;28;20046;-76
2022/02/01 02:15:53;;;;;;;6.72;3.08;;;;;;;;;;5019440;28;20072;-76
2022/02/01 02:18:19;;;;;;;7.43;3.47;;;;;;;;;;5002501;28;20041;-76
2022/02/01 02:20:51;;;;;;;7.57;3.35;;;;;;;;;;5013287;28;20034;-76
2022/02/01 02:23:16;;;;;;;9.70;3.55;;;;;;;;;;4997201;28;20105;-76
2022/02/01 02:25:42;;;;;;;7.43;3.00;;;;;;;;;;4999372;28;20056;-77
2022/02/01 02:28:10;;;;;;;7.07;2.92;;;;;;;;;;5014366;28;20044;-77
2022/02/01 02:30:36;;;;;;;7.63;3.90;;;;;;;;;;5000486;28;20038;-76
2022/02/01 02:33:04;;;;;;;6.70;3.00;;;;;;;;;;5000039;28;20440;-77
2022/02/01 02:35:33;;;;;;;6.72;2.97;;;;;;;;;;5012704;28;20488;-77
2022/02/01 02:38:03;;;;;;;6.45;3.08;;;;;;;;;;4981582;28;20125;-77
2022/02/01 02:45:57;;;;;;;5.55;2.67;;;;;;;;;;4998908;28;20032;-77
2022/02/01 02:48:22;;;;;;;8.00;2.67;;;;;;;;;;4996741;28;20502;-77
2022/02/01 02:50:48;;;;;;;9.32;3.00;;;;;;;;;;4995694;28;20081;-77
2022/02/01 02:53:14;;;;;;;5.57;2.65;;;;;;;;;;4996743;28;20042;-76
2022/02/01 02:55:39;;;;;;;5.57;2.60;;;;;;;;;;4996277;28;20508;-77
2022/02/01 02:58:04;;;;;;;5.75;2.40;;;;;;;;;;5007313;28;20041;-77
2022/02/01 03:00:30;;;;;;;4.78;1.92;;;;;;;;;;4999256;28;20404;-77
2022/02/01 03:02:55;;;;;;;8.32;2.50;;;;;;;;;;5015351;28;20033;-77
2022/02/01 03:05:21;;;;;;;5.90;2.50;;;;;;;;;;4999353;28;20056;-77
2022/02/01 03:07:46;;;;;;;6.07;2.83;;;;;;;;;;4999638;28;20041;-77
2022/02/01 03:10:12;;;;;;;5.57;2.25;;;;;;;;;;4999113;28;20049;-77
2022/02/01 03:15:42;;;;;;;5.70;2.17;;;;;;;;;;4998604;28;20034;-77
2022/02/01 03:20:51;;;;;;;4.40;1.83;;;;;;;;;;5003911;28;20185;-77
2022/02/01 03:23:16;;;;;;;5.70;1.92;;;;;;;;;;4998998;28;20430;-76
2022/02/01 03:25:42;;;;;;;5.68;1.70;;;;;;;;;;5015626;28;20034;-77
2022/02/01 03:28:07;;;;;;;5.07;2.45;;;;;;;;;;4998428;28;20071;-76
2022/02/01 03:30:33;;;;;;;7.47;2.40;;;;;;;;;;4978729;28;20038;-77
2022/02/01 03:32:58;;;;;;;6.60;2.00;;;;;;;;;;4994924;28;20030;-77
2022/02/01 03:35:23;;;;;;;4.60;2.22;;;;;;;;;;4992153;28;20029;-77
2022/02/01 03:37:49;;;;;;;4.63;1.80;;;;;;;;;;4982468;28;20111;-77
2022/02/01 03:40:17;;;;;;;5.55;2.00;;;;;;;;;;4998547;28;20033;-77
2022/02/01 03:42:43;;;;;;;4.80;1.75;;;;;;;;;;4982797;28;20550;-77
2022/02/01 03:45:09;;;;;;;5.35;2.20;;;;;;;;;;4997886;28;20136;-77
2022/02/01 03:47:34;;;;;;;5.15;1.80;;;;;;;;;;4998504;28;20124;-76
2022/02/01 03:50:00;;;;;;;6.75;2.00;;;;;;;;;;4998177;28;20041;-77
2022/02/01 03:52:25;;;;;;;4.38;1.63;;;;;;;;;;4994965;28;20042;-77
2022/02/01 03:54:51;;;;;;;4.85;1.70;;;;;;;;;;5011504;28;20033;-77
2022/02/01 03:57:16;;;;;;;3.83;1.20;;;;;;;;;;5009885;28;20069;-77
2022/02/01 03:59:44;;;;;;;4.68;1.83;;;;;;;;;;4978629;28;20037;-77
2022/02/01 04:02:10;;;;;;;6.50;2.00;;;;;;;;;;4984494;28;20034;-76
2022/02/01 04:04:35;;;;;;;6.03;1.88;;;;;;;;;;4994454;28;20026;-76
2022/02/01 04:07:01;;;;;;;5.57;1.67;;;;;;;;;;5011247;28;20073;-76
2022/02/01 04:09:27;;;;;;;4.63;1.48;;;;;;;;;;4994968;28;20030;-77
2022/02/01 04:11:54;;;;;;;5.32;1.42;;;;;;;;;;4995656;28;20033;-77
2022/02/01 04:14:23;;;;;;;4.28;1.40;;;;;;;;;;5014530;28;20038;-77
2022/02/01 04:16:48;;;;;;;4.70;1.90;;;;;;;;;;5014840;28;20037;-77
2022/02/01 04:19:14;;;;;;;5.40;1.58;;;;;;;;;;5014313;28;20039;-76
2022/02/01 04:21:45;;;;;;;6.03;1.60;;;;;;;;;;5013843;28;20052;-77
2022/02/01 04:24:11;;;;;;;4.35;1.40;;;;;;;;;;4999410;28;20040;-77
2022/02/01 04:26:36;;;;;;;4.05;1.38;;;;;;;;;;5014541;28;20037;-76
2022/02/01 04:29:02;;;;;;;6.13;2.38;;;;;;;;;;4987921;28;20064;-76
2022/02/01 04:31:28;;;;;;;5.72;1.70;;;;;;;;;;4994741;28;20049;-77
2022/02/01 04:33:54;;;;;;;4.38;1.85;;;;;;;;;;4994469;28;20049;-76
2022/02/01 04:36:19;;;;;;;4.30;1.42;;;;;;;;;;5030510;28;20037;-77
2022/02/01 04:38:53;;;;;;;5.57;2.17;;;;;;;;;;5014097;28;20125;-76
2022/02/01 04:41:19;;;;;;;6.32;1.60;;;;;;;;;;5030286;28;20115;-76
2022/02/01 04:43:44;;;;;;;3.80;1.50;;;;;;;;;;4993842;28;20464;-77
2022/02/01 04:46:10;;;;;;;3.53;1.75;;;;;;;;;;5011329;28;20042;-77
2022/02/01 04:48:36;;;;;;;4.50;1.63;;;;;;;;;;4997819;28;20029;-76
2022/02/01 04:51:01;;;;;;;5.82;1.67;;;;;;;;;;4997924;28;20419;-76
2022/02/01 04:53:28;;;;;;;4.57;1.50;;;;;;;;;;4997518;28;20029;-77
2022/02/01 04:55:54;;;;;;;4.95;1.40;;;;;;;;;;4997432;28;20029;-77
2022/02/01 04:58:23;;;;;;;5.13;1.52;;;;;;;;;;5014194;28;20041;-77
2022/02/01 05:00:49;;;;;;;3.78;1.10;;;;;;;;;;5013851;28;20053;-77
2022/02/01 05:03:15;;;;;;;4.22;1.48;;;;;;;;;;4993393;28;20089;-77
2022/02/01 05:05:40;;;;;;;5.35;1.60;;;;;;;;;;5010567;28;20038;-76
2022/02/01 05:08:10;;;;;;;5.18;1.30;;;;;;;;;;4997263;28;20060;-76
2022/02/01 05:10:36;;;;;;;6.65;2.70;;;;;;;;;;4998156;28;20128;-76
2022/02/01 05:13:37;;;;;;;5.53;1.27;;;;;;;;;;4993976;28;20120;-76
2022/02/01 05:15:48;;;;;;;4.05;1.35;;;;;;;;;;4986532;28;20463;-76
2022/02/01 05:18:17;;;;;;;5.05;1.85;;;;;;;;;;4998173;28;20109;-76
2022/02/01 05:20:50;;;;;;;5.30;1.45;;;;;;;;;;5003405;28;20037;-77
2022/02/01 05:23:17;;;;;;;;;;;;;;;;;;5003403;28;20061;-77
2022/02/01 05:25:43;;;;;;;3.17;1.27;;;;;;;;;;5034196;28;19924;-77
2022/02/01 05:28:09;;;;;;;5.25;1.45;;;;;;;;;;5013937;28;20149;-77
2022/02/01 05:30:35;;;;;;;5.65;1.30;;;;;;;;;;4981837;28;20116;-77
2022/02/01 05:33:00;;;;;;;4.55;1.77;;;;;;;;;;4997312;28;20038;-77
2022/02/01 05:35:26;;;;;;;4.38;1.30;;;;;;;;;;5028278;28;20034;-77
2022/02/01 05:37:51;;;;;;;4.90;1.52;;;;;;;;;;5016279;28;20060;-77
2022/02/01 05:40:19;;;;;;;4.70;1.20;;;;;;;;;;4999917;28;20045;-77
2022/02/01 05:42:55;;;;;;;5.63;1.60;;;;;;;;;;5017841;28;20521;-77
2022/02/01 05:45:21;;;;;;;4.65;1.38;;;;;;;;;;5018769;28;20026;-77
2022/02/01 05:47:47;;;;;;;5.72;2.15;;;;;;;;;;5000868;28;20037;-77
2022/02/01 05:50:12;;;;;;;5.68;1.67;;;;;;;;;;5001059;28;20044;-77
2022/02/01 05:52:38;;;;;;;4.15;1.30;;;;;;;;;;4992175;28;20042;-77
2022/02/01 05:55:04;;;;;;;5.07;1.77;;;;;;;;;;5030070;28;20037;-77
2022/02/01 05:57:29;;;;;;;6.82;1.98;;;;;;;;;;4998366;28;20042;-77
2022/02/01 05:59:55;;;;;;;4.90;1.80;;;;;;;;;;5013666;28;20030;-78
2022/02/01 06:02:20;;;;;;;4.50;1.88;;;;;;;;;;5029508;28;20057;-78
2022/02/01 06:04:45;;;;;;;6.97;1.88;;;;;;;;;;4997035;28;20055;-78
2022/02/01 06:07:11;;;;;;;5.00;1.77;;;;;;;;;;4996974;28;20095;-78
2022/02/01 06:09:36;;;;;;;5.20;1.50;;;;;;;;;;4997289;28;20176;-78
2022/02/01 06:12:02;;;;;;;6.95;2.55;;;;;;;;;;5024133;28;20061;-79
2022/02/01 06:14:28;;;;;;;5.68;2.00;;;;;;;;;;5000023;28;20034;-79
2022/02/01 06:16:53;;;;;;;5.30;2.38;;;;;;;;;;5000176;28;20140;-79
2022/02/01 06:19:19;;;;;;;5.25;1.60;;;;;;;;;;4997009;28;20034;-78
2022/02/01 06:21:44;;;;;;;8.07;2.60;;;;;;;;;;4989996;28;20042;-77
2022/02/01 06:24:10;;;;;;;6.57;2.25;;;;;;;;;;5012942;28;20034;-77
2022/02/01 06:26:35;;;;;;;5.40;2.15;;;;;;;;;;4995194;28;20415;-75
2022/02/01 06:29:01;;;;;;;4.57;1.83;;;;;;;;;;5029704;28;20488;-76
2022/02/01 06:31:26;;;;;;;5.40;1.95;;;;;;;;;;5012942;28;20038;-77
2022/02/01 06:33:51;;;;;;;7.70;2.40;;;;;;;;;;4979997;28;20049;-77
2022/02/01 06:36:17;;;;;;;7.65;2.72;;;;;;;;;;5012495;28;20034;-77
2022/02/01 06:38:42;;;;;;;10.82;3.65;;;;;;;;;;4997162;28;20064;-77
2022/02/01 06:41:08;;;;;;;8.07;2.30;;;;;;;;;;4996148;28;20120;-77
2022/02/01 06:43:33;;;;;;;6.28;2.00;;;;;;;;;;4996600;28;20030;-77
2022/02/01 06:45:59;;;;;;;9.75;2.42;;;;;;;;;;5013626;28;20048;-77
2022/02/01 06:48:25;;;;;;;8.70;2.95;;;;;;;;;;5012685;28;20033;-77
2022/02/01 06:50:52;;;;;;;5.72;2.30;;;;;;;;;;4980304;28;20038;-77
2022/02/01 06:53:19;;;;;;;10.10;2.92;;;;;;;;;;4996666;28;20053;-76
2022/02/01 06:55:57;;;;;;;8.15;2.53;;;;;;;;;;5012845;28;20084;-76
2022/02/01 06:58:22;;;;;;;8.00;2.75;;;;;;;;;;4998045;28;20052;-76
2022/02/01 07:00:48;;;;;;;10.43;3.05;;;;;;;;;;4999542;28;20045;-76
2022/02/01 07:03:13;;;;;;;8.13;3.05;;;;;;;;;;4993256;28;20041;-76
2022/02/01 07:05:39;;;;;;;9.15;2.92;;;;;;;;;;5005530;28;20045;-76
2022/02/01 07:08:04;;;;;;;8.52;2.47;;;;;;;;;;5030183;28;20560;-76
2022/02/01 07:10:30;;;;;;;7.57;2.67;;;;;;;;;;5028721;28;20050;-77
2022/02/01 07:12:55;;;;;;;7.38;2.70;;;;;;;;;;4999281;28;20515;-76
2022/02/01 07:15:21;;;;;;;9.57;3.20;;;;;;;;;;5015369;28;20120;-76
2022/02/01 07:17:50;;;;;;;10.65;3.60;;;;;;;;;;5014509;28;20037;-76
2022/02/01 07:20:16;;;;;;;10.35;3.20;;;;;;;;;;5030183;28;20041;-76
2022/02/01 07:22:43;;;;;;;9.07;2.80;;;;;;;;;;4994796;28;20037;-76
2022/02/01 07:27:53;;;;;;;8.63;2.85;;;;;;;;;;4996532;28;20030;-76
2022/02/01 07:30:23;;;;;;;8.13;2.35;;;;;;;;;;5010465;28;20046;-76
2022/02/01 07:32:49;;;;;;;8.73;2.58;;;;;;;;;;4979791;28;20034;-76
2022/02/01 07:35:15;;;;;;;9.25;3.10;;;;;;;;;;5023036;28;20033;-76
2022/02/01 07:37:42;;;;;;;9.90;3.00;;;;;;;;;;5014796;28;20037;-76
2022/02/01 07:40:08;;;;;;;6.40;2.45;;;;;;;;;;5014818;28;20112;-76
2022/02/01 07:42:34;;;;;;;14.15;2.65;;;;;;;;;;5015182;28;20112;-76
2022/02/01 07:45:02;;;;;;;6.63;2.25;;;;;;;;;;5031568;28;20086;-76
2022/02/01 07:47:27;;;;;;;5.55;2.00;;;;;;;;;;4999434;28;20551;-76
2022/02/01 07:49:53;;;;;;;10.38;2.30;;;;;;;;;;4997895;28;20120;-76
2022/02/01 07:52:18;;;;;;;7.70;2.67;;;;;;;;;;5030880;28;20041;-76
2022/02/01 07:54:44;;;;;;;7.72;3.00;;;;;;;;;;5031382;28;20033;-76
2022/02/01 07:57:10;;;;;;;7.20;2.42;;;;;;;;;;5014855;28;20030;-76
2022/02/01 07:59:35;;;;;;;7.70;2.33;;;;;;;;;;5014677;28;20099;-76
2022/02/01 08:02:03;;;;;;;6.22;2.13;;;;;;;;;;5014386;28;20117;-76
2022/02/01 08:04:32;;;;;;;6.43;2.10;;;;;;;;;;5014527;28;20037;-76
2022/02/01 08:06:59;;;;;;;6.70;2.60;;;;;;;;;;5015375;28;20064;-76
2022/02/01 08:09:31;;;;;;;9.30;3.30;;;;;;;;;;5030863;28;20037;-76
2022/02/01 08:11:57;;;;;;;11.07;4.25;;;;;;;;;;5015411;28;20579;-76
2022/02/01 08:16:56;;;;;;;14.18;7.88;;;;;;;;;;5013491;28;20389;-76
2022/02/01 08:19:28;;;;;;;15.93;9.15;;;;;;;;;;5015493;28;20126;-76
2022/02/01 08:21:55;;;;;;;19.33;10.98;;;;;;;;;;5031238;28;20098;-76
2022/02/01 08:24:20;;;;;;;22.00;14.18;;;;;;;;;;4997735;28;20037;-76
2022/02/01 08:26:46;;;;;;;20.50;12.13;;;;;;;;;;5014368;28;20400;-76
2022/02/01 08:29:11;;;;;;;24.67;13.75;;;;;;;;;;5014122;28;20045;-76
2022/02/01 08:31:36;;;;;;;22.38;13.57;;;;;;;;;;5013912;28;20037;-76
2022/02/01 08:34:02;;;;;;;21.15;15.35;;;;;;;;;;4995427;28;20420;-76
2022/02/01 08:36:27;;;;;;;25.45;13.88;;;;;;;;;;4994737;28;20034;-76
2022/02/01 08:38:54;;;;;;;22.58;16.02;;;;;;;;;;4994447;28;20045;-77
2022/02/01 08:41:20;;;;;;;24.77;14.70;;;;;;;;;;4994340;28;20057;-77
2022/02/01 08:43:45;;;;;;;24.05;13.57;;;;;;;;;;5010668;28;20042;-77
2022/02/01 08:46:11;;;;;;;23.60;14.07;;;;;;;;;;4977836;28;20075;-77
2022/02/01 08:48:36;;;;;;;23.98;14.32;;;;;;;;;;5009831;28;20042;-77
2022/02/01 08:51:06;;;;;;;21.00;13.60;;;;;;;;;;4994335;28;20034;-77
2022/02/01 08:53:45;;;;;;;22.55;12.60;;;;;;;;;;4979704;28;20567;-76
2022/02/01 08:57:20;;;;;;;25.25;15.63;;;;;;;;;;4995627;28;20447;-77
2022/02/01 08:58:56;;;;;;;21.75;13.60;;;;;;;;;;5010859;28;20495;-76
2022/02/01 09:01:22;;;;;;;20.83;13.10;;;;;;;;;;5001797;28;20057;-78
2022/02/01 09:03:47;;;;;;;21.95;11.85;;;;;;;;;;4997089;28;20080;-77
2022/02/01 09:06:13;;;;;;;20.45;12.32;;;;;;;;;;4997728;28;20060;-77
2022/02/01 09:08:38;;;;;;;24.65;13.55;;;;;;;;;;4997505;28;20127;-77
2022/02/01 09:11:04;;;;;;;21.20;11.77;;;;;;;;;;5013630;28;20041;-77
2022/02/01 09:13:30;;;;;;;19.33;10.90;;;;;;;;;;5030020;28;20417;-77
2022/02/01 09:15:55;;;;;;;17.00;10.40;;;;;;;;;;5013701;28;20087;-76
2022/02/01 09:18:21;;;;;;;16.92;10.07;;;;;;;;;;5030455;28;20033;-77
2022/02/01 09:20:46;;;;;;;15.57;10.32;;;;;;;;;;5014053;28;20434;-77
2022/02/01 09:23:12;;;;;;;15.85;10.90;;;;;;;;;;4997334;28;20045;-77
2022/02/01 09:25:37;;;;;;;17.02;9.48;;;;;;;;;;5013657;28;20518;-77
2022/02/01 09:28:03;;;;;;;14.77;8.30;;;;;;;;;;5013770;28;20389;-77
2022/02/01 09:30:30;;;;;;;15.68;8.88;;;;;;;;;;4997155;28;20053;-77
2022/02/01 09:32:55;;;;;;;10.93;6.63;;;;;;;;;;4997367;28;20048;-77
2022/02/01 09:35:21;;;;;;;12.73;7.38;;;;;;;;;;5001405;28;20026;-77
2022/02/01 09:37:50;;;;;;;13.98;7.93;;;;;;;;;;4994157;28;20080;-77
2022/02/01 09:40:15;;;;;;;10.75;7.20;;;;;;;;;;4993598;28;20044;-77
2022/02/01 09:42:41;;;;;;;11.90;6.07;;;;;;;;;;4994037;28;20108;-77
2022/02/01 09:45:07;;;;;;;11.40;6.00;;;;;;;;;;4993452;28;20088;-77
2022/02/01 09:47:37;;;;;;;10.75;6.57;;;;;;;;;;4978054;28;20077;-77
2022/02/01 09:50:06;;;;;;;10.18;5.60;;;;;;;;;;4994045;28;20030;-77
2022/02/01 09:52:34;;;;;;;10.43;5.55;;;;;;;;;;4994103;28;20042;-77
2022/02/01 09:55:02;;;;;;;11.73;5.63;;;;;;;;;;5010012;28;20101;-77
2022/02/01 09:57:28;;;;;;;12.60;6.03;;;;;;;;;;4994548;28;20542;-77
2022/02/01 09:59:57;;;;;;;10.70;5.53;;;;;;;;;;4976660;28;20042;-77
2022/02/01 10:02:34;;;;;;;8.32;4.72;;;;;;;;;;5009553;28;20042;-77
2022/02/01 10:05:01;;;;;;;8.15;4.85;;;;;;;;;;4997535;28;20030;-76
2022/02/01 10:07:26;;;;;;;7.75;4.68;;;;;;;;;;4997160;28;20061;-76
2022/02/01 10:09:55;;;;;;;9.27;5.22;;;;;;;;;;4980437;28;20511;-76
2022/02/01 10:12:21;;;;;;;8.70;4.75;;;;;;;;;;4997051;28;20104;-76
2022/02/01 10:15:03;;;;;;;8.48;5.40;;;;;;;;;;4980704;28;20026;-77
2022/02/01 10:17:40;;;;;;;7.00;4.00;;;;;;;;;;4999421;28;20057;-76
2022/02/01 10:20:06;;;;;;;7.50;3.35;;;;;;;;;;4998285;28;20042;-76
2022/02/01 10:22:33;;;;;;;6.78;3.35;;;;;;;;;;4997444;28;20532;-78
2022/02/01 10:25:02;;;;;;;7.85;4.25;;;;;;;;;;5013103;28;20038;-78
2022/02/01 10:27:30;;;;;;;6.35;4.18;;;;;;;;;;4981789;28;20052;-78
2022/02/01 10:30:13;;;;;;;8.98;4.55;;;;;;;;;;4996975;28;20042;-78
2022/02/01 10:36:17;;;;;;;7.90;3.83;;;;;;;;;;4996638;28;20550;-78
2022/02/01 10:38:12;;;;;;;6.43;3.70;;;;;;;;;;4995308;28;20053;-79
2022/02/01 10:40:44;;;;;;;7.22;4.05;;;;;;;;;;4979763;28;20044;-78
2022/02/01 10:43:20;;;;;;;5.95;3.60;;;;;;;;;;4995824;28;20034;-80
2022/02/01 10:45:45;;;;;;;7.82;3.30;;;;;;;;;;4996142;28;20073;-79
2022/02/01 10:48:14;;;;;;;6.22;2.95;;;;;;;;;;4979749;28;20074;-79
2022/02/01 10:50:40;;;;;;;7.10;3.20;;;;;;;;;;4980757;28;20037;-79
2022/02/01 10:53:15;;;;;;;5.43;3.00;;;;;;;;;;4996190;28;20486;-79
2022/02/01 10:55:40;;;;;;;5.15;2.80;;;;;;;;;;4980125;28;20499;-79
2022/02/01 10:58:06;;;;;;;5.53;3.00;;;;;;;;;;4995986;28;20042;-79
2022/02/01 11:00:31;;;;;;;4.88;2.53;;;;;;;;;;4981267;28;20049;-79
2022/02/01 11:02:57;;;;;;;5.07;2.85;;;;;;;;;;5031627;28;20498;-80
2022/02/01 11:05:23;;;;;;;4.80;2.45;;;;;;;;;;5015516;28;20503;-80
2022/02/01 11:07:52;;;;;;;5.93;2.55;;;;;;;;;;5015850;28;20567;-79
2022/02/01 11:10:17;;;;;;;5.03;2.88;;;;;;;;;;4999012;28;20065;-80
2022/02/01 11:12:43;;;;;;;3.97;2.38;;;;;;;;;;4998201;28;20401;-79
2022/02/01 11:15:21;;;;;;;4.13;2.30;;;;;;;;;;4998813;28;20611;-78
2022/02/01 11:17:50;;;;;;;5.30;2.53;;;;;;;;;;5015769;28;20088;-79
2022/02/01 11:20:29;;;;;;;3.97;1.92;;;;;;;;;;5000089;28;20105;-78
2022/02/01 11:23:07;;;;;;;5.72;2.08;;;;;;;;;;4999359;28;20037;-79
2022/02/01 11:25:46;;;;;;;3.20;1.55;;;;;;;;;;5015598;28;20116;-79
2022/02/01 11:28:47;;;;;;;3.53;1.80;;;;;;;;;;5015980;28;20083;-78
2022/02/01 11:31:13;;;;;;;2.75;1.45;;;;;;;;;;5017596;28;20042;-79
2022/02/01 11:33:42;;;;;;;3.58;1.50;;;;;;;;;;5014831;28;20128;-79
2022/02/01 11:36:13;;;;;;;3.58;1.80;;;;;;;;;;4980084;28;20034;-78
2022/02/01 11:38:49;;;;;;;3.20;1.73;;;;;;;;;;4995460;28;20592;-79
2022/02/01 11:41:14;;;;;;;4.10;1.83;;;;;;;;;;4978761;28;20083;-79
2022/02/01 11:43:40;;;;;;;4.10;1.48;;;;;;;;;;5011595;28;20459;-79
2022/02/01 11:46:10;;;;;;;4.50;1.15;;;;;;;;;;4995335;28;20026;-79
2022/02/01 11:48:39;;;;;;;2.55;1.25;;;;;;;;;;5012066;28;20049;-78
2022/02/01 11:51:08;;;;;;;3.60;1.23;;;;;;;;;;4979100;28;20152;-78
2022/02/01 11:53:33;;;;;;;2.53;0.82;;;;;;;;;;4995325;28;20044;-79
2022/02/01 11:55:59;;;;;;;2.80;1.15;;;;;;;;;;5012294;28;20034;-78
2022/02/01 11:58:30;;;;;;;4.10;1.70;;;;;;;;;;4995526;28;20127;-78
2022/02/01 12:00:55;;;;;;;2.63;1.08;;;;;;;;;;4999545;28;20168;-78
2022/02/01 12:03:34;;;;;;;4.68;1.02;;;;;;;;;;5014022;28;20104;-78
2022/02/01 12:06:06;;;;;;;3.67;1.25;;;;;;;;;;4999741;28;20033;-78
2022/02/01 12:08:33;;;;;;;1.95;0.70;;;;;;;;;;5015645;28;20086;-78
2022/02/01 12:11:01;;;;;;;3.88;0.88;;;;;;;;;;5013807;28;20060;-78
2022/02/01 12:13:26;;;;;;;3.08;1.10;;;;;;;;;;4980394;28;20128;-78
2022/02/01 12:15:59;;;;;;;3.15;1.30;;;;;;;;;;5013849;28;20037;-78
2022/02/01 12:18:31;;;;;;;4.53;2.10;;;;;;;;;;4981365;28;20044;-79
2022/02/01 12:21:33;;;;;;;3.60;1.42;;;;;;;;;;5030819;28;20403;-78
2022/02/01 12:24:00;;;;;;;2.65;1.20;;;;;;;;;;5031388;28;20042;-78
2022/02/01 12:26:27;;;;;;;2.95;1.05;;;;;;;;;;5014463;28;20091;-78
2022/02/01 12:28:54;;;;;;;2.50;1.00;;;;;;;;;;4998237;28;20042;-78
2022/02/01 12:31:21;;;;;;;3.08;1.10;;;;;;;;;;5014201;28;20033;-78
2022/02/01 12:33:48;;;;;;;3.42;1.52;;;;;;;;;;5013950;28;20048;-78
2022/02/01 12:36:19;;;;;;;3.28;1.00;;;;;;;;;;4962325;28;20069;-78
2022/02/01 12:38:48;;;;;;;2.78;1.02;;;;;;;;;;4994450;28;20030;-79
2022/02/01 12:41:16;;;;;;;2.67;1.10;;;;;;;;;;4979310;28;20121;-79
2022/02/01 12:48:55;;;;;;;2.80;1.10;;;;;;;;;;4978888;28;20088;-80
2022/02/01 12:51:20;;;;;;;3.17;0.98;;;;;;;;;;4994688;28;20038;-80
2022/02/01 12:53:48;;;;;;;2.35;0.70;;;;;;;;;;4993947;28;20038;-80
2022/02/01 12:56:21;;;;;;;3.30;0.95;;;;;;;;;;4994623;28;20115;-79
2022/02/01 12:58:54;;;;;;;3.05;0.93;;;;;;;;;;4978429;28;20041;-79
2022/02/01 13:01:35;;;;;;;1.83;0.75;;;;;;;;;;5001905;28;20037;-80
2022/02/01 13:04:05;;;;;;;1.17;0.60;;;;;;;;;;5013487;28;20100;-80
2022/02/01 13:06:34;;;;;;;2.65;1.23;;;;;;;;;;5014353;28;20033;-80
2022/02/01 13:17:19;;;;;;;3.42;0.90;;;;;;;;;;5013961;28;20108;-80
2022/02/01 13:20:07;;;;;;;2.17;0.73;;;;;;;;;;5017590;28;20033;-80
2022/02/01 13:22:34;;;;;;;2.15;1.05;;;;;;;;;;5001630;28;20041;-80
2022/02/01 13:25:10;;;;;;;2.70;1.33;;;;;;;;;;5029972;28;20040;-80
2022/02/01 13:27:35;;;;;;;3.00;0.90;;;;;;;;;;4998036;28;20084;-80
2022/02/01 13:30:09;;;;;;;2.33;0.60;;;;;;;;;;4997235;28;20411;-81
2022/02/01 13:32:36;;;;;;;1.48;0.70;;;;;;;;;;5013951;28;20030;-81
2022/02/01 13:35:10;;;;;;;1.83;0.70;;;;;;;;;;5010664;28;20139;-80
2022/02/01 13:37:47;;;;;;;1.67;0.80;;;;;;;;;;4981548;28;20034;-80
2022/02/01 13:40:26;;;;;;;1.73;0.70;;;;;;;;;;4998357;28;20061;-80
2022/02/01 13:42:52;;;;;;;2.30;0.93;;;;;;;;;;4981542;28;20577;-79
2022/02/01 13:45:17;;;;;;;1.48;0.60;;;;;;;;;;4965208;28;20128;-80
2022/02/01 13:47:44;;;;;;;1.83;1.02;;;;;;;;;;4981565;28;20511;-79
2022/02/01 13:50:11;;;;;;;1.10;0.52;;;;;;;;;;4980801;28;20034;-80
2022/02/01 13:52:37;;;;;;;1.35;0.52;;;;;;;;;;4965411;28;20400;-79
2022/02/01 13:55:04;;;;;;;1.50;0.60;;;;;;;;;;4981471;28;20034;-79
2022/02/01 13:57:31;;;;;;;1.15;0.40;;;;;;;;;;4997728;28;20432;-79
2022/02/01 14:00:09;;;;;;;2.35;1.02;;;;;;;;;;4981427;28;20042;-78
2022/02/01 14:02:38;;;;;;;2.03;0.90;;;;;;;;;;5015013;28;20029;-79
2022/02/01 14:05:13;;;;;;;2.97;1.27;;;;;;;;;;5001465;28;20049;-79
2022/02/01 14:07:57;;;;;;;2.65;1.25;;;;;;;;;;5018019;28;20389;-79
2022/02/01 14:32:10;;;;;;;2.28;1.25;;;;;;;;;;5018346;28;20034;-79
2022/02/01 14:34:37;;;;;;;2.58;1.35;;;;;;;;;;4998327;28;20030;-79
2022/02/01 14:37:10;;;;;;;3.22;1.10;;;;;;;;;;5013013;28;20105;-79
2022/02/01 14:44:47;;;;;;;3.67;1.30;;;;;;;;;;5001459;28;20033;-79
2022/02/01 14:47:17;;;;;;;3.55;1.10;;;;;;;;;;5011809;28;20033;-79
2022/02/01 14:49:43;;;;;;;3.50;1.58;;;;;;;;;;4980100;28;20508;-78
2022/02/01 14:52:08;;;;;;;4.53;1.38;;;;;;;;;;4980102;28;20048;-79
2022/02/01 14:54:46;;;;;;;3.95;1.60;;;;;;;;;;4996286;28;20099;-79
2022/02/01 15:05:52;;;;;;;10.02;6.07;;;;;;;;;;5032554;28;20045;-78
2022/02/01 15:13:20;;;;;;;21.40;15.07;;;;;;;;;;5018303;28;20048;-78
2022/02/01 15:15:46;;;;;;;23.38;14.10;;;;;;;;;;4998848;28;20037;-78
2022/02/01 15:18:11;;;;;;;21.38;13.15;;;;;;;;;;5031413;28;20041;-79
2022/02/01 15:20:36;;;;;;;18.98;10.88;;;;;;;;;;5015378;28;20033;-79
2022/02/01 15:23:02;;;;;;;19.83;11.68;;;;;;;;;;4998785;28;20046;-78
2022/02/01 15:25:28;;;;;;;17.33;11.73;;;;;;;;;;4999036;28;20065;-78
2022/02/01 15:27:53;;;;;;;17.83;10.95;;;;;;;;;;4998979;28;20041;-78
2022/02/01 15:30:19;;;;;;;15.20;11.20;;;;;;;;;;5015270;28;20051;-78
2022/02/01 15:32:44;;;;;;;17.45;10.85;;;;;;;;;;4998028;28;20041;-78
2022/02/01 15:35:14;;;;;;;29.48;11.10;;;;;;;;;;4987939;28;20575;-78
2022/02/01 15:37:47;;;;;;;19.90;10.73;;;;;;;;;;4980748;28;20034;-78
2022/02/01 15:46:26;;;;;;;24.10;13.90;;;;;;;;;;4997899;28;20455;-78
2022/02/01 15:56:56;;;;;;;22.48;11.63;;;;;;;;;;4997861;28;20033;-78
2022/02/01 15:59:25;;;;;;;21.23;11.57;;;;;;;;;;4997839;28;20034;-78
2022/02/01 16:01:57;;;;;;;22.52;11.88;;;;;;;;;;5003300;28;20109;-78
2022/02/01 16:04:23;;;;;;;21.63;10.50;;;;;;;;;;4995475;28;20117;-78
2022/02/01 16:06:56;;;;;;;19.55;10.50;;;;;;;;;;4994928;28;20116;-78
2022/02/01 16:11:47;;;;;;;17.60;9.93;;;;;;;;;;5013200;28;20447;-78
2022/02/01 16:14:13;;;;;;;16.70;8.68;;;;;;;;;;5014024;28;20061;-78
2022/02/01 16:16:39;;;;;;;19.88;10.00;;;;;;;;;;4997656;28;20095;-78
2022/02/01 16:19:05;;;;;;;13.45;7.63;;;;;;;;;;5014002;28;20407;-77
2022/02/01 16:21:31;;;;;;;14.63;8.07;;;;;;;;;;4968786;28;20034;-77
2022/02/01 16:23:57;;;;;;;15.63;7.47;;;;;;;;;;4978178;28;20117;-76
2022/02/01 16:26:22;;;;;;;13.43;7.45;;;;;;;;;;4994782;28;20026;-77
2022/02/01 16:28:48;;;;;;;12.65;7.07;;;;;;;;;;4994504;28;20049;-77
2022/02/01 16:31:15;;;;;;;18.23;7.95;;;;;;;;;;4999916;28;20499;-77
2022/02/01 16:33:41;;;;;;;21.70;8.20;;;;;;;;;;4995704;28;20496;-77
2022/02/01 16:36:06;;;;;;;16.40;8.57;;;;;;;;;;4979952;28;20037;-77
2022/02/01 16:38:32;;;;;;;17.15;7.35;;;;;;;;;;5010229;28;20056;-77
2022/02/01 16:40:59;;;;;;;15.55;8.05;;;;;;;;;;4963098;28;20037;-77
2022/02/01 16:43:24;;;;;;;15.27;7.22;;;;;;;;;;5012107;28;20044;-77
2022/02/01 16:45:50;;;;;;;14.82;7.07;;;;;;;;;;5010453;28;20117;-77
2022/02/01 16:48:16;;;;;;;15.48;6.75;;;;;;;;;;4977933;28;20042;-77
2022/02/01 16:50:42;;;;;;;11.43;6.43;;;;;;;;;;4994548;28;20038;-77
2022/02/01 16:53:17;;;;;;;14.18;6.65;;;;;;;;;;5010543;28;20642;-77
2022/02/01 16:55:53;;;;;;;11.80;6.65;;;;;;;;;;4996889;28;20038;-77
2022/02/01 16:58:24;;;;;;;16.75;6.70;;;;;;;;;;4997206;28;20092;-77
2022/02/01 17:00:50;;;;;;;23.52;8.23;;;;;;;;;;4980147;28;20085;-77
2022/02/01 17:03:15;;;;;;;31.95;9.95;;;;;;;;;;4997245;28;20499;-77
2022/02/01 17:05:40;;;;;;;35.90;11.38;;;;;;;;;;5013566;28;20040;-77
2022/02/01 17:08:06;;;;;;;27.08;9.55;;;;;;;;;;5019571;28;20046;-77
2022/02/01 17:10:32;;;;;;;26.48;8.82;;;;;;;;;;5015198;28;20262;-77
2022/02/01 17:13:09;;;;;;;25.00;8.77;;;;;;;;;;5003735;28;20081;-77
2022/02/01 17:21:32;;;;;;;17.70;6.97;;;;;;;;;;5023957;28;20092;-77
2022/02/01 17:24:01;;;;;;;19.55;6.25;;;;;;;;;;5015615;28;20037;-77